Time;durP1;ratioP1;P1;durP2;ratioP2;P2;SDS_P1;SDS_P2;PMS_P1;PMS_P2;Temp;Humidity;BMP_temperature;BMP_pressure;BME280_temperature;BME280_humidity;BME280_pressure;Samples;Min_cycle;Max_cycle;Signal;HPM_P1;HPM_P2
2022/08/21 00:00:24;;;;;;;1.95;0.90;;;;;;;;;;4989374;28;20113;-78
2022/08/21 00:03:03;;;;;;;2.10;1.00;;;;;;;;;;5006615;28;20405;-78
2022/08/21 00:05:29;;;;;;;1.02;0.80;;;;;;;;;;5006304;28;20467;-74
2022/08/21 00:07:56;;;;;;;1.60;0.90;;;;;;;;;;5006504;28;20143;-75
2022/08/21 00:10:21;;;;;;;3.10;1.00;;;;;;;;;;5006624;28;20077;-75
2022/08/21 00:12:48;;;;;;;2.38;0.93;;;;;;;;;;5006813;28;20052;-76
2022/08/21 00:15:17;;;;;;;4.22;1.00;;;;;;;;;;5006316;28;20108;-76
2022/08/21 00:17:42;;;;;;;2.50;0.90;;;;;;;;;;5006378;28;20022;-76
2022/08/21 00:20:10;;;;;;;1.65;0.85;;;;;;;;;;5006527;28;20374;-77
2022/08/21 00:22:36;;;;;;;1.95;0.98;;;;;;;;;;5006194;28;20029;-74
2022/08/21 00:25:02;;;;;;;1.70;0.90;;;;;;;;;;5007447;28;20030;-74
2022/08/21 00:27:28;;;;;;;1.90;0.93;;;;;;;;;;5006522;28;20026;-77
2022/08/21 00:29:53;;;;;;;1.42;0.95;;;;;;;;;;5006395;28;20034;-77
2022/08/21 00:32:21;;;;;;;2.53;1.00;;;;;;;;;;5006468;28;20613;-79
2022/08/21 00:34:47;;;;;;;1.65;1.02;;;;;;;;;;5006114;28;20105;-76
2022/08/21 00:37:12;;;;;;;3.13;1.05;;;;;;;;;;5005810;28;20105;-78
2022/08/21 00:39:38;;;;;;;2.22;1.00;;;;;;;;;;5006298;28;20048;-79
2022/08/21 00:42:04;;;;;;;3.05;1.00;;;;;;;;;;5006503;28;20481;-77
2022/08/21 00:44:30;;;;;;;2.70;1.08;;;;;;;;;;4988693;28;20127;-78
2022/08/21 00:46:56;;;;;;;2.17;1.05;;;;;;;;;;5006052;28;20098;-78
2022/08/21 00:49:22;;;;;;;1.27;0.90;;;;;;;;;;5006205;28;20481;-79
2022/08/21 00:51:55;;;;;;;3.40;1.00;;;;;;;;;;5005731;28;20028;-78
2022/08/21 00:54:24;;;;;;;2.08;1.10;;;;;;;;;;5006079;28;20034;-78
2022/08/21 00:56:53;;;;;;;1.75;0.90;;;;;;;;;;5005953;28;20025;-76
2022/08/21 00:59:20;;;;;;;1.55;0.98;;;;;;;;;;5006126;28;20026;-78
2022/08/21 01:01:46;;;;;;;1.23;0.90;;;;;;;;;;5006060;28;20486;-78
2022/08/21 01:04:12;;;;;;;1.52;1.00;;;;;;;;;;5005949;28;20394;-74
2022/08/21 01:06:38;;;;;;;2.03;0.90;;;;;;;;;;5006545;28;20117;-79
2022/08/21 01:09:03;;;;;;;1.20;1.00;;;;;;;;;;5009111;28;20603;-79
2022/08/21 01:11:29;;;;;;;1.90;1.02;;;;;;;;;;5009201;28;20037;-79
2022/08/21 01:13:55;;;;;;;3.65;0.98;;;;;;;;;;5009073;28;20040;-80
2022/08/21 01:16:21;;;;;;;2.20;1.00;;;;;;;;;;5009052;28;20124;-80
2022/08/21 01:18:48;;;;;;;2.53;1.05;;;;;;;;;;5009379;28;20032;-80
2022/08/21 01:21:17;;;;;;;2.25;0.88;;;;;;;;;;5009311;28;20033;-78
2022/08/21 01:23:45;;;;;;;3.55;1.00;;;;;;;;;;5009073;28;20022;-79
2022/08/21 01:26:12;;;;;;;1.60;0.95;;;;;;;;;;5008892;28;20033;-80
2022/08/21 01:28:43;;;;;;;1.88;1.00;;;;;;;;;;5008732;28;20553;-80
2022/08/21 01:31:12;;;;;;;1.40;1.00;;;;;;;;;;5008887;28;20030;-80
2022/08/21 01:33:38;;;;;;;5.72;1.00;;;;;;;;;;5009125;28;20026;-80
2022/08/21 01:36:04;;;;;;;1.83;1.00;;;;;;;;;;5008778;28;20647;-78
2022/08/21 01:38:29;;;;;;;1.27;0.90;;;;;;;;;;5008564;28;20090;-77
2022/08/21 01:40:55;;;;;;;1.77;0.80;;;;;;;;;;4991222;28;20442;-79
2022/08/21 01:43:20;;;;;;;2.03;0.88;;;;;;;;;;5010425;28;20542;-78
2022/08/21 01:45:46;;;;;;;1.52;1.10;;;;;;;;;;5008486;28;20041;-77
2022/08/21 01:48:11;;;;;;;2.10;1.10;;;;;;;;;;5008455;28;20026;-76
2022/08/21 01:50:36;;;;;;;1.52;1.05;;;;;;;;;;5008635;28;20022;-77
2022/08/21 01:53:02;;;;;;;2.42;1.15;;;;;;;;;;5008278;28;20111;-75
2022/08/21 01:55:27;;;;;;;2.63;1.13;;;;;;;;;;5009993;28;20033;-77
2022/08/21 01:57:53;;;;;;;2.25;1.00;;;;;;;;;;5008663;28;20036;-77
2022/08/21 02:00:22;;;;;;;2.10;1.23;;;;;;;;;;5008681;28;20026;-76
2022/08/21 02:02:49;;;;;;;1.55;1.02;;;;;;;;;;5008629;28;20044;-78
2022/08/21 02:05:14;;;;;;;2.45;1.10;;;;;;;;;;5008129;28;20121;-78
2022/08/21 02:07:43;;;;;;;1.25;1.00;;;;;;;;;;5008156;28;20297;-77
2022/08/21 02:10:12;;;;;;;2.33;1.10;;;;;;;;;;5008412;28;20115;-77
2022/08/21 02:12:37;;;;;;;4.90;1.10;;;;;;;;;;5008435;28;20111;-77
2022/08/21 02:15:04;;;;;;;1.50;0.98;;;;;;;;;;5008391;28;20030;-78
2022/08/21 02:17:39;;;;;;;1.90;1.10;;;;;;;;;;5007549;28;20394;-78
2022/08/21 02:20:05;;;;;;;2.70;1.30;;;;;;;;;;5007659;28;20030;-77
2022/08/21 02:22:31;;;;;;;3.40;1.20;;;;;;;;;;5007722;28;20072;-77
2022/08/21 02:24:56;;;;;;;3.30;1.05;;;;;;;;;;5008038;28;20065;-75
2022/08/21 02:27:23;;;;;;;4.10;1.20;;;;;;;;;;5007849;28;20026;-77
2022/08/21 02:29:48;;;;;;;3.33;1.20;;;;;;;;;;5008098;28;20052;-77
2022/08/21 02:32:14;;;;;;;2.35;1.00;;;;;;;;;;5008198;28;20412;-76
2022/08/21 02:34:39;;;;;;;1.77;1.00;;;;;;;;;;4990470;28;20762;-75
2022/08/21 02:37:05;;;;;;;2.28;1.15;;;;;;;;;;5007310;28;20030;-77
2022/08/21 02:39:30;;;;;;;2.70;1.13;;;;;;;;;;5007759;28;20030;-78
2022/08/21 02:41:55;;;;;;;3.08;1.00;;;;;;;;;;5007789;28;20038;-78
2022/08/21 02:44:21;;;;;;;1.75;1.10;;;;;;;;;;5007812;28;20053;-77
2022/08/21 02:46:46;;;;;;;4.10;1.27;;;;;;;;;;5007621;28;20030;-77
2022/08/21 02:49:12;;;;;;;2.45;1.13;;;;;;;;;;5007874;28;20033;-78
2022/08/21 02:51:37;;;;;;;3.03;1.10;;;;;;;;;;5007329;28;20516;-77
2022/08/21 02:54:02;;;;;;;2.22;1.10;;;;;;;;;;5007593;28;20101;-77
2022/08/21 02:56:28;;;;;;;1.27;0.90;;;;;;;;;;5007476;28;20511;-76
2022/08/21 02:58:54;;;;;;;2.25;1.10;;;;;;;;;;5007551;28;20370;-77
2022/08/21 03:01:21;;;;;;;4.20;1.00;;;;;;;;;;5007603;28;20563;-78
2022/08/21 03:03:50;;;;;;;1.48;1.10;;;;;;;;;;5007677;28;20026;-77
2022/08/21 03:06:18;;;;;;;3.05;1.10;;;;;;;;;;5007099;28;20613;-75
2022/08/21 03:08:44;;;;;;;2.00;1.10;;;;;;;;;;5007268;28;20109;-77
2022/08/21 03:11:11;;;;;;;2.50;0.90;;;;;;;;;;5007691;28;20049;-76
2022/08/21 03:13:38;;;;;;;1.25;1.00;;;;;;;;;;5007437;28;20082;-75
2022/08/21 03:16:04;;;;;;;2.00;1.20;;;;;;;;;;5007152;28;20030;-77
2022/08/21 03:18:29;;;;;;;2.38;1.10;;;;;;;;;;5007362;28;20484;-76
2022/08/21 03:20:54;;;;;;;2.05;1.10;;;;;;;;;;5007580;28;20481;-76
2022/08/21 03:23:20;;;;;;;1.20;0.88;;;;;;;;;;4989357;28;20112;-75
2022/08/21 03:25:48;;;;;;;1.63;1.00;;;;;;;;;;5007102;28;20040;-76
2022/08/21 03:28:17;;;;;;;1.80;0.90;;;;;;;;;;5007211;28;20031;-76
2022/08/21 03:30:44;;;;;;;1.77;1.00;;;;;;;;;;5006658;28;20042;-76
2022/08/21 03:33:10;;;;;;;2.53;1.00;;;;;;;;;;5007028;28;20034;-77
2022/08/21 03:35:35;;;;;;;1.88;1.00;;;;;;;;;;5007035;28;20026;-76
2022/08/21 03:38:01;;;;;;;3.17;0.90;;;;;;;;;;5006679;28;20582;-76
2022/08/21 03:40:26;;;;;;;1.20;0.80;;;;;;;;;;5007139;28;20107;-75
2022/08/21 03:42:52;;;;;;;1.40;0.90;;;;;;;;;;5007095;28;20018;-75
2022/08/21 03:45:18;;;;;;;1.88;0.90;;;;;;;;;;5007171;28;20120;-78
2022/08/21 03:47:57;;;;;;;2.22;1.00;;;;;;;;;;5010408;28;20025;-77
2022/08/21 03:50:24;;;;;;;1.92;1.02;;;;;;;;;;5006620;28;20374;-77
2022/08/21 03:52:49;;;;;;;1.40;0.90;;;;;;;;;;5006471;28;20034;-76
2022/08/21 03:55:15;;;;;;;1.40;0.90;;;;;;;;;;5007123;28;20075;-76
2022/08/21 03:57:40;;;;;;;0.77;0.73;;;;;;;;;;5006651;28;20033;-76
2022/08/21 04:00:11;;;;;;;2.45;1.00;;;;;;;;;;5006944;28;20034;-77
2022/08/21 04:02:38;;;;;;;2.53;0.90;;;;;;;;;;5006740;28;20464;-76
2022/08/21 04:05:04;;;;;;;1.58;1.02;;;;;;;;;;5006408;28;20067;-77
2022/08/21 04:07:30;;;;;;;1.50;0.85;;;;;;;;;;5006080;28;20501;-77
2022/08/21 04:09:55;;;;;;;1.95;0.93;;;;;;;;;;5006825;28;20040;-77
2022/08/21 04:12:21;;;;;;;1.50;0.90;;;;;;;;;;5006576;28;20501;-76
2022/08/21 04:14:47;;;;;;;1.58;0.90;;;;;;;;;;5006821;28;20030;-76
2022/08/21 04:17:12;;;;;;;2.25;0.90;;;;;;;;;;5006591;28;20057;-77
2022/08/21 04:19:38;;;;;;;1.23;0.88;;;;;;;;;;5006538;28;20058;-74
2022/08/21 04:22:03;;;;;;;2.13;0.90;;;;;;;;;;5006015;28;20108;-73
2022/08/21 04:24:29;;;;;;;2.08;0.88;;;;;;;;;;5006406;28;20018;-76
2022/08/21 04:26:55;;;;;;;1.23;0.82;;;;;;;;;;5006367;28;20505;-74
2022/08/21 04:29:20;;;;;;;2.13;0.88;;;;;;;;;;5006202;28;20088;-75
2022/08/21 04:31:46;;;;;;;1.48;0.80;;;;;;;;;;4988848;28;20638;-73
2022/08/21 04:34:12;;;;;;;2.33;0.90;;;;;;;;;;5006522;28;20557;-75
2022/08/21 04:36:37;;;;;;;1.10;0.80;;;;;;;;;;5005820;28;20079;-73
2022/08/21 04:39:03;;;;;;;1.23;0.80;;;;;;;;;;5006225;28;20087;-75
2022/08/21 04:41:28;;;;;;;2.42;1.00;;;;;;;;;;5008444;28;20072;-74
2022/08/21 04:43:55;;;;;;;2.42;1.20;;;;;;;;;;5009766;28;20025;-74
2022/08/21 04:46:21;;;;;;;2.03;0.88;;;;;;;;;;5009433;28;20048;-73
2022/08/21 04:48:46;;;;;;;2.63;1.10;;;;;;;;;;5010215;28;20029;-74
2022/08/21 04:51:43;;;;;;;1.30;1.00;;;;;;;;;;5009760;28;20026;-76
2022/08/21 04:54:14;;;;;;;2.08;0.90;;;;;;;;;;4988317;28;20045;-76
2022/08/21 04:56:43;;;;;;;2.08;0.80;;;;;;;;;;4991757;28;20392;-75
2022/08/21 04:59:17;;;;;;;1.98;1.10;;;;;;;;;;5009192;28;20057;-76
2022/08/21 05:01:43;;;;;;;2.05;0.90;;;;;;;;;;4991744;28;20038;-76
2022/08/21 05:04:14;;;;;;;1.80;0.90;;;;;;;;;;5009328;28;20041;-75
2022/08/21 05:06:42;;;;;;;3.05;1.20;;;;;;;;;;5008774;28;20554;-73
2022/08/21 05:09:09;;;;;;;2.00;1.00;;;;;;;;;;5009499;28;20102;-76
2022/08/21 05:11:35;;;;;;;1.90;1.10;;;;;;;;;;5009517;28;20022;-76
2022/08/21 05:14:00;;;;;;;1.75;1.00;;;;;;;;;;5009117;28;20022;-76
2022/08/21 05:16:26;;;;;;;2.42;1.00;;;;;;;;;;5008942;28;20101;-73
2022/08/21 05:18:51;;;;;;;1.45;0.90;;;;;;;;;;5009126;28;20086;-73
2022/08/21 05:21:17;;;;;;;1.55;0.88;;;;;;;;;;5008820;28;20075;-73
2022/08/21 05:23:42;;;;;;;2.45;0.90;;;;;;;;;;5010545;28;20060;-72
2022/08/21 05:26:08;;;;;;;2.58;1.00;;;;;;;;;;5009265;28;20022;-73
2022/08/21 05:28:33;;;;;;;1.50;0.90;;;;;;;;;;5008981;28;20158;-72
2022/08/21 05:30:59;;;;;;;2.20;1.05;;;;;;;;;;5008867;28;20393;-75
2022/08/21 05:33:24;;;;;;;3.58;1.00;;;;;;;;;;5008895;28;20026;-73
2022/08/21 05:35:52;;;;;;;1.58;0.93;;;;;;;;;;5008988;28;20384;-73
2022/08/21 05:38:18;;;;;;;1.55;0.93;;;;;;;;;;5008340;28;20025;-72
2022/08/21 05:40:43;;;;;;;1.88;1.08;;;;;;;;;;5008756;28;20026;-72
2022/08/21 05:43:09;;;;;;;1.60;1.00;;;;;;;;;;5008951;28;20026;-74
2022/08/21 05:45:34;;;;;;;1.63;0.90;;;;;;;;;;5008938;28;20524;-73
2022/08/21 05:48:20;;;;;;;2.58;1.10;;;;;;;;;;5008347;28;20023;-72
2022/08/21 05:50:47;;;;;;;1.92;0.90;;;;;;;;;;5008684;28;20028;-73
2022/08/21 05:53:14;;;;;;;1.73;0.90;;;;;;;;;;5008045;28;20614;-73
2022/08/21 05:55:40;;;;;;;2.88;0.93;;;;;;;;;;5008446;28;20034;-73
2022/08/21 05:58:06;;;;;;;1.95;0.90;;;;;;;;;;5008578;28;20030;-72
2022/08/21 06:00:33;;;;;;;2.28;1.10;;;;;;;;;;5008559;28;20075;-76
2022/08/21 06:02:58;;;;;;;3.08;1.10;;;;;;;;;;5008644;28;20038;-76
2022/08/21 06:05:24;;;;;;;2.05;1.13;;;;;;;;;;5008472;28;20091;-77
2022/08/21 06:07:49;;;;;;;1.95;1.00;;;;;;;;;;5007827;28;20026;-77
2022/08/21 06:10:15;;;;;;;4.10;1.10;;;;;;;;;;5008257;28;20250;-77
2022/08/21 06:12:40;;;;;;;2.45;1.20;;;;;;;;;;5008303;28;20113;-76
2022/08/21 06:15:06;;;;;;;3.80;1.20;;;;;;;;;;5008422;28;20358;-76
2022/08/21 06:17:32;;;;;;;2.40;1.10;;;;;;;;;;5008123;28;20026;-77
2022/08/21 06:19:57;;;;;;;1.95;0.93;;;;;;;;;;5008360;28;20034;-76
2022/08/21 06:22:22;;;;;;;2.35;1.08;;;;;;;;;;5008086;28;20073;-74
2022/08/21 06:24:48;;;;;;;2.13;1.13;;;;;;;;;;5008184;28;20026;-78
2022/08/21 06:27:14;;;;;;;1.75;1.10;;;;;;;;;;5007961;28;20065;-75
2022/08/21 06:29:40;;;;;;;3.03;1.02;;;;;;;;;;5008088;28;20022;-83
2022/08/21 06:32:07;;;;;;;4.05;1.13;;;;;;;;;;5008523;28;20059;-89
2022/08/21 06:34:36;;;;;;;1.70;1.00;;;;;;;;;;5010094;28;20489;-88
2022/08/21 06:37:02;;;;;;;2.78;1.10;;;;;;;;;;5008411;28;20026;-82
2022/08/21 06:39:27;;;;;;;2.90;1.08;;;;;;;;;;5009035;28;20113;-83
2022/08/21 06:41:52;;;;;;;2.60;1.23;;;;;;;;;;5008641;28;20485;-87
2022/08/21 06:44:18;;;;;;;2.10;1.17;;;;;;;;;;5007928;28;20036;-89
2022/08/21 06:46:44;;;;;;;2.53;1.15;;;;;;;;;;5008378;28;20026;-79
2022/08/21 06:49:09;;;;;;;1.55;1.08;;;;;;;;;;5007592;28;20087;-85
2022/08/21 06:51:34;;;;;;;1.65;1.08;;;;;;;;;;5007479;28;20032;-79
2022/08/21 06:54:00;;;;;;;3.78;1.00;;;;;;;;;;5007750;28;20276;-79
2022/08/21 06:56:25;;;;;;;2.45;1.05;;;;;;;;;;5008115;28;20026;-78
2022/08/21 06:58:51;;;;;;;4.15;1.05;;;;;;;;;;5007420;28;20033;-71
2022/08/21 07:01:18;;;;;;;1.58;1.00;;;;;;;;;;5007553;28;20529;-71
2022/08/21 07:03:44;;;;;;;2.15;1.00;;;;;;;;;;5007323;28;20026;-74
2022/08/21 07:06:10;;;;;;;2.47;0.93;;;;;;;;;;4989536;28;20042;-75
2022/08/21 07:08:37;;;;;;;4.15;1.20;;;;;;;;;;5007336;28;20041;-81
2022/08/21 07:11:09;;;;;;;1.65;0.90;;;;;;;;;;5007683;28;20049;-75
2022/08/21 07:13:35;;;;;;;3.42;1.05;;;;;;;;;;5007655;28;20030;-80
2022/08/21 07:16:01;;;;;;;1.92;0.80;;;;;;;;;;5007265;28;20026;-79
2022/08/21 07:18:26;;;;;;;1.13;0.98;;;;;;;;;;5007123;28;20033;-75
2022/08/21 07:20:51;;;;;;;2.70;0.93;;;;;;;;;;4989779;28;20026;-75
2022/08/21 07:23:27;;;;;;;2.08;1.00;;;;;;;;;;5007011;28;20136;-80
2022/08/21 07:25:54;;;;;;;2.22;1.17;;;;;;;;;;5007488;28;20030;-77
2022/08/21 07:28:19;;;;;;;2.20;0.90;;;;;;;;;;5007078;28;20038;-77
2022/08/21 07:30:45;;;;;;;2.78;1.00;;;;;;;;;;5007335;28;20040;-76
2022/08/21 07:33:11;;;;;;;1.25;0.90;;;;;;;;;;5007000;28;20644;-76
2022/08/21 07:35:36;;;;;;;2.17;1.00;;;;;;;;;;5007247;28;20110;-79
2022/08/21 07:38:02;;;;;;;2.30;0.90;;;;;;;;;;5006500;28;20079;-80
2022/08/21 07:40:27;;;;;;;1.75;0.90;;;;;;;;;;5007890;28;20022;-80
2022/08/21 07:42:53;;;;;;;1.33;0.85;;;;;;;;;;5009287;28;20127;-78
2022/08/21 07:45:21;;;;;;;1.25;0.98;;;;;;;;;;5017928;28;20052;-78
2022/08/21 07:47:48;;;;;;;2.17;0.90;;;;;;;;;;5011456;28;20206;-79
2022/08/21 07:50:14;;;;;;;3.00;0.90;;;;;;;;;;5008278;28;20485;-78
2022/08/21 07:52:41;;;;;;;1.23;0.80;;;;;;;;;;5014299;28;20032;-76
2022/08/21 07:55:11;;;;;;;1.13;0.70;;;;;;;;;;4995714;28;20321;-77
2022/08/21 07:57:37;;;;;;;1.47;0.90;;;;;;;;;;4996926;28;20025;-83
2022/08/21 08:00:13;;;;;;;0.98;0.70;;;;;;;;;;5018356;28;20328;-78
2022/08/21 08:02:39;;;;;;;0.88;0.70;;;;;;;;;;5000837;28;20030;-75
2022/08/21 08:05:09;;;;;;;2.00;1.17;;;;;;;;;;5018107;28;20052;-80
2022/08/21 08:07:34;;;;;;;1.50;0.90;;;;;;;;;;5017797;28;20022;-81
2022/08/21 08:10:00;;;;;;;1.38;0.80;;;;;;;;;;5018942;28;20033;-76
2022/08/21 08:12:29;;;;;;;1.30;0.90;;;;;;;;;;5009281;28;20030;-76
2022/08/21 08:14:59;;;;;;;1.38;0.80;;;;;;;;;;5007189;28;20292;-73
2022/08/21 08:17:25;;;;;;;1.23;0.75;;;;;;;;;;5000518;28;20136;-78
2022/08/21 08:19:50;;;;;;;1.92;0.90;;;;;;;;;;5018145;28;20059;-74
2022/08/21 08:22:19;;;;;;;1.90;0.90;;;;;;;;;;5021404;28;20030;-73
2022/08/21 08:24:45;;;;;;;1.65;0.90;;;;;;;;;;5021623;28;20036;-73
2022/08/21 08:27:11;;;;;;;2.55;0.82;;;;;;;;;;5014793;28;20133;-75
2022/08/21 08:29:37;;;;;;;2.17;1.10;;;;;;;;;;5001566;28;20026;-76
2022/08/21 08:32:04;;;;;;;1.67;1.05;;;;;;;;;;5002399;28;20099;-73
2022/08/21 08:34:30;;;;;;;1.88;0.93;;;;;;;;;;5018884;28;20037;-73
2022/08/21 08:36:57;;;;;;;2.05;0.98;;;;;;;;;;5017462;28;20034;-74
2022/08/21 08:39:23;;;;;;;1.52;0.93;;;;;;;;;;5020649;28;20022;-75
2022/08/21 08:41:51;;;;;;;1.73;0.93;;;;;;;;;;5017571;28;20060;-72
2022/08/21 08:44:16;;;;;;;2.45;0.82;;;;;;;;;;5018815;28;20239;-74
2022/08/21 08:46:48;;;;;;;1.15;0.93;;;;;;;;;;5019159;28;20079;-73
2022/08/21 08:49:26;;;;;;;1.23;0.90;;;;;;;;;;5020707;28;20029;-73
2022/08/21 08:52:01;;;;;;;1.05;0.80;;;;;;;;;;5015187;28;20117;-73
2022/08/21 08:54:39;;;;;;;2.50;1.10;;;;;;;;;;5014725;28;20547;-74
2022/08/21 08:57:14;;;;;;;0.82;0.63;;;;;;;;;;5017281;28;20398;-74
2022/08/21 08:59:43;;;;;;;1.40;0.73;;;;;;;;;;5016696;28;20067;-73
2022/08/21 09:02:11;;;;;;;1.08;0.70;;;;;;;;;;5016166;28;20276;-76
2022/08/21 09:04:37;;;;;;;2.35;0.70;;;;;;;;;;5001580;28;20259;-76
2022/08/21 09:07:19;;;;;;;1.77;0.70;;;;;;;;;;5017663;28;20038;-74
2022/08/21 09:09:54;;;;;;;1.83;0.90;;;;;;;;;;5019146;28;20026;-76
2022/08/21 09:12:32;;;;;;;2.30;0.75;;;;;;;;;;5020686;28;20382;-78
2022/08/21 09:15:08;;;;;;;2.50;0.80;;;;;;;;;;5020723;28;20018;-77
2022/08/21 09:17:56;;;;;;;1.42;0.70;;;;;;;;;;5018151;28;20030;-75
2022/08/21 09:20:41;;;;;;;1.33;0.70;;;;;;;;;;5020411;28;20042;-77
2022/08/21 09:23:18;;;;;;;1.13;0.80;;;;;;;;;;5017981;28;20026;-75
2022/08/21 09:25:59;;;;;;;1.30;0.80;;;;;;;;;;5020290;28;20034;-76
2022/08/21 09:28:26;;;;;;;0.60;0.60;;;;;;;;;;5000882;28;20761;-76
2022/08/21 09:30:55;;;;;;;2.53;0.80;;;;;;;;;;5017624;28;20025;-76
2022/08/21 09:33:21;;;;;;;1.00;0.70;;;;;;;;;;5011015;28;20204;-76
2022/08/21 09:35:57;;;;;;;0.98;0.73;;;;;;;;;;5011593;28;20452;-76
2022/08/21 09:38:35;;;;;;;1.40;0.50;;;;;;;;;;5000450;28;20037;-76
2022/08/21 09:41:08;;;;;;;1.10;0.73;;;;;;;;;;5016681;28;20074;-75
2022/08/21 09:43:35;;;;;;;1.38;0.65;;;;;;;;;;5020366;28;20326;-77
2022/08/21 09:46:11;;;;;;;2.08;0.70;;;;;;;;;;5000975;28;20030;-82
2022/08/21 09:48:57;;;;;;;1.85;0.70;;;;;;;;;;5017380;28;20034;-78
2022/08/21 09:51:35;;;;;;;0.77;0.60;;;;;;;;;;5002380;28;20061;-75
2022/08/21 09:54:07;;;;;;;1.08;0.60;;;;;;;;;;5017486;28;20069;-78
2022/08/21 09:59:32;;;;;;;2.28;0.65;;;;;;;;;;5018087;28;20252;-76
2022/08/21 10:02:01;;;;;;;1.27;0.70;;;;;;;;;;5006132;28;20111;-75
2022/08/21 10:04:35;;;;;;;1.27;0.70;;;;;;;;;;5011540;28;20049;-77
2022/08/21 10:07:13;;;;;;;3.10;0.70;;;;;;;;;;4997289;28;20022;-77
2022/08/21 10:09:40;;;;;;;0.75;0.60;;;;;;;;;;5005169;28;20030;-80
2022/08/21 10:12:15;;;;;;;1.80;0.80;;;;;;;;;;4999694;28;20054;-76
2022/08/21 10:14:58;;;;;;;1.73;0.73;;;;;;;;;;4998719;28;20046;-74
2022/08/21 10:17:50;;;;;;;0.63;0.63;;;;;;;;;;4997960;28;20342;-76
2022/08/21 10:20:18;;;;;;;2.35;0.73;;;;;;;;;;5019282;28;20029;-75
2022/08/21 10:22:53;;;;;;;1.45;0.70;;;;;;;;;;5016380;28;20025;-74
2022/08/21 10:25:30;;;;;;;1.83;0.70;;;;;;;;;;5019027;28;20084;-74
2022/08/21 10:28:22;;;;;;;2.42;0.70;;;;;;;;;;5018112;28;20040;-74
2022/08/21 10:31:18;;;;;;;1.50;0.70;;;;;;;;;;5019201;28;20075;-75
2022/08/21 10:33:53;;;;;;;2.30;1.00;;;;;;;;;;5014877;28;20053;-77
2022/08/21 10:36:39;;;;;;;24.88;1.98;;;;;;;;;;5016053;28;20075;-75
2022/08/21 10:39:19;;;;;;;2.13;0.80;;;;;;;;;;5016599;28;20068;-77
2022/08/21 10:41:50;;;;;;;1.90;0.80;;;;;;;;;;5019333;28;20033;-74
2022/08/21 10:44:34;;;;;;;2.30;0.80;;;;;;;;;;5019203;28;20085;-74
2022/08/21 10:47:15;;;;;;;2.97;0.80;;;;;;;;;;5017966;28;20044;-77
2022/08/21 10:50:03;;;;;;;2.25;0.70;;;;;;;;;;5018892;28;20079;-76
2022/08/21 10:52:58;;;;;;;1.48;0.80;;;;;;;;;;5018900;28;20041;-76
2022/08/21 10:55:31;;;;;;;0.80;0.70;;;;;;;;;;5019108;28;20026;-72
2022/08/21 10:58:21;;;;;;;3.05;0.80;;;;;;;;;;5001804;28;20075;-75
2022/08/21 11:00:53;;;;;;;7.28;0.82;;;;;;;;;;5001560;28;20041;-74
2022/08/21 11:03:29;;;;;;;3.60;0.77;;;;;;;;;;5018940;28;20036;-74
2022/08/21 11:06:02;;;;;;;2.03;0.65;;;;;;;;;;5018861;28;20229;-73
2022/08/21 11:08:39;;;;;;;4.03;0.70;;;;;;;;;;5018600;28;20345;-73
2022/08/21 11:11:11;;;;;;;5.80;0.90;;;;;;;;;;5018813;28;20025;-74
2022/08/21 11:13:47;;;;;;;2.83;0.70;;;;;;;;;;5018804;28;20047;-72
2022/08/21 11:16:34;;;;;;;1.98;0.85;;;;;;;;;;5018928;28;20045;-75
2022/08/21 11:19:07;;;;;;;1.55;0.75;;;;;;;;;;5015261;28;20042;-75
2022/08/21 11:21:45;;;;;;;1.63;0.82;;;;;;;;;;4999456;28;20049;-75
2022/08/21 11:24:23;;;;;;;2.78;0.60;;;;;;;;;;5018175;28;20014;-75
2022/08/21 11:26:58;;;;;;;1.30;0.70;;;;;;;;;;5016795;28;20041;-74
2022/08/21 11:29:28;;;;;;;1.58;0.73;;;;;;;;;;5013939;28;20033;-75
2022/08/21 11:32:21;;;;;;;1.20;0.70;;;;;;;;;;5017216;28;20037;-75
2022/08/21 11:35:10;;;;;;;1.15;0.70;;;;;;;;;;5013267;28;20269;-74
2022/08/21 11:37:56;;;;;;;3.15;0.70;;;;;;;;;;5012430;28;20207;-74
2022/08/21 11:40:47;;;;;;;0.90;0.75;;;;;;;;;;5009406;28;20034;-74
2022/08/21 11:43:31;;;;;;;1.20;0.70;;;;;;;;;;5015889;28;20053;-73
2022/08/21 11:46:08;;;;;;;2.70;0.60;;;;;;;;;;5008350;28;20041;-74
2022/08/21 11:48:39;;;;;;;1.27;0.50;;;;;;;;;;5014677;28;20034;-74
2022/08/21 11:51:10;;;;;;;1.10;0.60;;;;;;;;;;5000707;28;20053;-73
2022/08/21 11:53:41;;;;;;;1.05;0.60;;;;;;;;;;5018275;28;20037;-74
2022/08/21 11:56:15;;;;;;;1.20;0.60;;;;;;;;;;5015740;28;20079;-74
2022/08/21 11:58:47;;;;;;;2.08;0.60;;;;;;;;;;5003507;28;20017;-78
2022/08/21 12:01:20;;;;;;;1.40;0.50;;;;;;;;;;5004119;28;20534;-73
2022/08/21 12:04:01;;;;;;;1.00;0.70;;;;;;;;;;5004987;28;20040;-73
2022/08/21 12:06:29;;;;;;;0.77;0.68;;;;;;;;;;5004519;28;20502;-73
2022/08/21 12:09:07;;;;;;;1.77;0.60;;;;;;;;;;5008098;28;20030;-75
2022/08/21 12:11:46;;;;;;;1.70;0.63;;;;;;;;;;5006868;28;20036;-74
2022/08/21 12:14:16;;;;;;;1.63;0.70;;;;;;;;;;5006510;28;20029;-74
2022/08/21 12:16:44;;;;;;;3.30;0.90;;;;;;;;;;5006658;28;20498;-74
2022/08/21 12:19:11;;;;;;;1.00;0.70;;;;;;;;;;4988872;28;20022;-74
2022/08/21 12:21:53;;;;;;;1.42;0.80;;;;;;;;;;5005947;28;20586;-74
2022/08/21 12:24:36;;;;;;;2.35;0.60;;;;;;;;;;5006440;28;20033;-74
2022/08/21 12:27:21;;;;;;;0.75;0.63;;;;;;;;;;4989148;28;20022;-74
2022/08/21 12:29:59;;;;;;;4.20;0.80;;;;;;;;;;5006353;28;20041;-74
2022/08/21 12:32:44;;;;;;;0.80;0.68;;;;;;;;;;5006332;28;20040;-75
2022/08/21 12:35:15;;;;;;;1.90;0.70;;;;;;;;;;5006309;28;20079;-75
2022/08/21 12:37:49;;;;;;;2.08;0.90;;;;;;;;;;4988386;28;20025;-74
2022/08/21 12:40:17;;;;;;;1.73;0.90;;;;;;;;;;5006167;28;20057;-74
2022/08/21 12:42:49;;;;;;;2.40;0.82;;;;;;;;;;5006236;28;20029;-74
2022/08/21 12:45:22;;;;;;;0.93;0.57;;;;;;;;;;5006416;28;20030;-74
2022/08/21 12:47:57;;;;;;;2.60;0.70;;;;;;;;;;5006218;28;20034;-74
2022/08/21 12:50:36;;;;;;;0.98;0.60;;;;;;;;;;5006022;28;20033;-74
2022/08/21 12:53:23;;;;;;;1.38;0.70;;;;;;;;;;5005755;28;20038;-74
2022/08/21 12:55:48;;;;;;;1.52;0.60;;;;;;;;;;4988446;28;20516;-74
2022/08/21 12:58:22;;;;;;;1.73;0.70;;;;;;;;;;5006081;28;20034;-74
2022/08/21 13:00:54;;;;;;;1.55;0.68;;;;;;;;;;5006056;28;20037;-74
2022/08/21 13:03:22;;;;;;;0.70;0.50;;;;;;;;;;4990523;28;20037;-74
2022/08/21 13:05:48;;;;;;;1.27;0.65;;;;;;;;;;5009340;28;20050;-74
2022/08/21 13:08:14;;;;;;;1.77;0.60;;;;;;;;;;5008979;28;20036;-74
2022/08/21 13:10:41;;;;;;;0.52;0.52;;;;;;;;;;5008801;28;20026;-74
2022/08/21 13:13:19;;;;;;;0.60;0.55;;;;;;;;;;5009094;28;20464;-74
2022/08/21 13:15:45;;;;;;;1.02;0.70;;;;;;;;;;5009365;28;20022;-74
2022/08/21 13:18:24;;;;;;;1.17;0.70;;;;;;;;;;5009291;28;20079;-74
2022/08/21 13:20:50;;;;;;;1.20;0.60;;;;;;;;;;5009083;28;20048;-74
2022/08/21 13:23:23;;;;;;;0.93;0.63;;;;;;;;;;5008685;28;20025;-74
2022/08/21 13:25:48;;;;;;;2.38;0.90;;;;;;;;;;5009121;28;20033;-74
2022/08/21 13:28:14;;;;;;;2.55;0.70;;;;;;;;;;5009008;28;20030;-74
2022/08/21 13:30:45;;;;;;;1.33;0.80;;;;;;;;;;5008726;28;20536;-74
2022/08/21 13:33:14;;;;;;;0.80;0.70;;;;;;;;;;5009212;28;20109;-74
2022/08/21 13:35:56;;;;;;;1.15;0.80;;;;;;;;;;5008969;28;20018;-74
2022/08/21 13:38:26;;;;;;;2.03;0.80;;;;;;;;;;5008610;28;20374;-73
2022/08/21 13:40:58;;;;;;;2.72;0.75;;;;;;;;;;5008815;28;20022;-74
2022/08/21 13:43:48;;;;;;;3.05;0.70;;;;;;;;;;5008901;28;20489;-74
2022/08/21 13:46:14;;;;;;;1.65;0.80;;;;;;;;;;5009082;28;20114;-74
2022/08/21 13:48:41;;;;;;;0.75;0.70;;;;;;;;;;5008943;28;20033;-74
2022/08/21 13:51:07;;;;;;;1.55;0.90;;;;;;;;;;5008466;28;20026;-74
2022/08/21 13:53:52;;;;;;;1.80;0.70;;;;;;;;;;5008856;28;20689;-74
2022/08/21 13:56:30;;;;;;;0.80;0.70;;;;;;;;;;5008680;28;20033;-74
2022/08/21 13:58:58;;;;;;;1.67;0.70;;;;;;;;;;5008679;28;20496;-74
2022/08/21 14:01:35;;;;;;;1.20;0.80;;;;;;;;;;5008507;28;20038;-74
2022/08/21 14:04:19;;;;;;;1.17;0.85;;;;;;;;;;5008382;28;20026;-74
2022/08/21 14:06:45;;;;;;;1.88;0.80;;;;;;;;;;5008317;28;20029;-74
2022/08/21 14:09:23;;;;;;;1.73;1.20;;;;;;;;;;5008445;28;20528;-74
2022/08/21 14:11:49;;;;;;;2.90;1.00;;;;;;;;;;4990851;28;20034;-74
2022/08/21 14:14:25;;;;;;;1.38;0.95;;;;;;;;;;5008366;28;20370;-74
2022/08/21 14:16:57;;;;;;;1.83;1.00;;;;;;;;;;5008374;28;20518;-74
2022/08/21 14:19:37;;;;;;;1.75;1.00;;;;;;;;;;5008036;28;20026;-74
2022/08/21 14:22:23;;;;;;;1.48;0.90;;;;;;;;;;5007787;28;20093;-74
2022/08/21 14:24:48;;;;;;;1.25;0.90;;;;;;;;;;5008382;28;20046;-74
2022/08/21 14:27:17;;;;;;;2.15;1.00;;;;;;;;;;5008418;28;20654;-74
2022/08/21 14:29:43;;;;;;;1.48;0.95;;;;;;;;;;5008113;28;20504;-74
2022/08/21 14:32:14;;;;;;;1.40;0.98;;;;;;;;;;5008181;28;20037;-74
2022/08/21 14:34:39;;;;;;;1.70;1.00;;;;;;;;;;5008086;28;20022;-74
2022/08/21 14:37:05;;;;;;;1.50;0.90;;;;;;;;;;5007762;28;20516;-74
2022/08/21 14:39:30;;;;;;;1.30;0.90;;;;;;;;;;5008143;28;20014;-74
2022/08/21 14:41:57;;;;;;;1.35;0.90;;;;;;;;;;5007699;28;20413;-74
2022/08/21 14:44:22;;;;;;;2.13;0.93;;;;;;;;;;5007923;28;20022;-74
2022/08/21 14:46:48;;;;;;;1.60;1.00;;;;;;;;;;4990508;28;20026;-74
2022/08/21 14:49:13;;;;;;;1.88;0.95;;;;;;;;;;5007868;28;20473;-75
2022/08/21 14:51:39;;;;;;;2.78;1.05;;;;;;;;;;5007219;28;20083;-74
2022/08/21 14:54:06;;;;;;;2.00;1.00;;;;;;;;;;5007764;28;20030;-74
2022/08/21 14:56:32;;;;;;;1.67;1.10;;;;;;;;;;5007620;28;20030;-74
2022/08/21 14:59:04;;;;;;;3.25;1.10;;;;;;;;;;5007613;28;20109;-74
2022/08/21 15:01:32;;;;;;;4.28;1.20;;;;;;;;;;5007548;28;20481;-74